createdAt,value
2016-04-04T00:00:00.906Z,87.1
2016-04-04T00:01:00.862Z,86.53
2016-04-04T00:02:00.786Z,86.91
2016-04-04T00:03:00.758Z,87.39
2016-04-04T00:04:00.698Z,87.68
2016-04-04T00:05:00.670Z,87.54
2016-04-04T00:06:00.625Z,88.25
2016-04-04T00:07:00.550Z,88.11
2016-04-04T00:08:00.506Z,88.01
2016-04-04T00:09:00.461Z,88.2
2016-04-04T00:10:00.417Z,88.68
2016-04-04T00:11:00.358Z,88.87
2016-04-04T00:12:00.298Z,88.3
2016-04-04T00:13:00.253Z,88.2
2016-04-04T00:14:00.209Z,87.92
2016-04-04T00:15:00.165Z,88.15
2016-04-04T00:16:00.122Z,88.25
2016-04-04T00:17:00.061Z,87.48
2016-04-04T00:18:00.016Z,87.68
2016-04-04T00:18:59.972Z,87.58
2016-04-04T00:19:59.960Z,87.39
2016-04-04T00:20:59.885Z,87.01
2016-04-04T00:21:59.809Z,87.29
2016-04-04T00:22:59.765Z,87.39
2016-04-04T00:23:59.721Z,87.58
2016-04-04T00:24:59.691Z,87.48
2016-04-04T00:25:59.632Z,87.58
2016-04-04T00:26:59.572Z,87.58
2016-04-04T00:27:59.529Z,87.58
2016-04-04T00:28:59.515Z,87.58
2016-04-04T00:29:59.440Z,87.58
2016-04-04T00:30:59.395Z,87.58
2016-04-04T00:31:59.335Z,87.39
2016-04-04T00:32:59.276Z,87.39
2016-04-04T00:33:59.232Z,87.58
2016-04-04T00:34:59.203Z,88.06
2016-04-04T00:35:59.143Z,89.01
2016-04-04T00:36:59.083Z,88.87
2016-04-04T00:37:59.039Z,88.4
2016-04-04T00:38:58.996Z,88.01
2016-04-04T00:39:58.935Z,88.49
2016-04-04T00:40:58.892Z,88.97
2016-04-04T00:41:58.862Z,88.87
2016-04-04T00:42:58.802Z,88.97
2016-04-04T00:43:58.758Z,88.11
2016-04-04T00:44:58.700Z,88.06
2016-04-04T00:45:58.670Z,88.25
2016-04-04T00:46:58.658Z,88.15
2016-04-04T00:47:58.566Z,87.96
2016-04-04T00:48:58.506Z,88.15
2016-04-04T00:49:58.462Z,88.25
2016-04-04T00:50:58.418Z,87.39
2016-04-04T00:51:58.358Z,87.77
2016-04-04T00:52:58.330Z,87.39
2016-04-04T00:53:58.269Z,87.58
2016-04-04T00:54:58.210Z,87.39
2016-04-04T00:55:58.166Z,87.29
2016-04-04T00:56:58.138Z,87.48
2016-04-04T00:57:58.062Z,87.58
2016-04-04T00:58:58.018Z,87.39
2016-04-04T00:59:57.973Z,87.48
2016-04-04T01:00:57.929Z,87.96
2016-04-04T01:01:57.885Z,88.06
2016-04-04T01:02:57.810Z,88.34
2016-04-04T01:03:57.797Z,88.06
2016-04-04T01:04:57.737Z,87.87
2016-04-04T01:05:57.677Z,87.77
2016-04-04T01:06:57.618Z,88.15
2016-04-04T01:07:57.574Z,88.06
2016-04-04T01:08:57.527Z,88.54
2016-04-04T01:09:57.498Z,88.97
2016-04-04T01:10:57.438Z,89.06
2016-04-04T01:11:57.379Z,89.45
2016-04-04T01:12:57.334Z,89.83
2016-04-04T01:13:57.290Z,89.25
2016-04-04T01:14:57.230Z,89.83
2016-04-04T01:15:57.186Z,89.83
2016-04-04T01:16:57.142Z,89.92
2016-04-04T01:17:57.081Z,90.59
2016-04-04T01:18:57.038Z,90.59
2016-04-04T01:19:56.994Z,90.4
2016-04-04T01:20:56.933Z,90.31
2016-04-04T01:21:56.889Z,90.59
2016-04-04T01:22:56.845Z,90.4
2016-04-04T01:23:56.786Z,89.54
2016-04-04T01:24:56.742Z,89.16
2016-04-04T01:25:56.697Z,89.45
2016-04-04T01:26:56.638Z,89.35
2016-04-04T01:27:56.593Z,89.35
2016-04-04T01:28:56.549Z,89.64
2016-04-04T01:29:56.488Z,89.25
2016-04-04T01:30:56.445Z,89.92
2016-04-04T01:31:56.385Z,90.4
2016-04-04T01:32:56.341Z,90.78
2016-04-04T01:33:56.297Z,90.59
2016-04-04T01:34:56.252Z,91.41
2016-04-04T01:35:56.193Z,90.55
2016-04-04T01:36:56.165Z,90.93
2016-04-04T01:37:56.105Z,90.36
2016-04-04T01:38:56.060Z,89.64
2016-04-04T01:39:56.001Z,90.31
2016-04-04T01:40:55.957Z,89.64
2016-04-04T01:41:55.912Z,90.59
2016-04-04T01:42:55.853Z,90.26
2016-04-04T01:43:55.823Z,90.17
2016-04-04T01:44:55.748Z,90.11
2016-04-04T01:45:55.704Z,90.55
2016-04-04T01:46:55.659Z,89.88
2016-04-04T01:47:55.600Z,89.54
2016-04-04T01:48:55.555Z,90.4
2016-04-04T01:49:55.527Z,90.59
2016-04-04T01:50:55.452Z,90.02
2016-04-04T01:51:55.407Z,90.31
2016-04-04T01:52:55.363Z,90.55
2016-04-04T01:53:55.303Z,90.5
2016-04-04T01:54:55.259Z,91.31
2016-04-04T01:55:55.215Z,91.31
2016-04-04T01:56:55.171Z,91.5
2016-04-04T01:57:55.111Z,91.5
2016-04-04T01:58:55.066Z,91.31
2016-04-04T01:59:55.007Z,90.73
2016-04-04T02:00:54.968Z,91.21
2016-04-04T02:01:54.924Z,91.12
2016-04-04T02:02:54.880Z,91.02
2016-04-04T02:03:54.820Z,91.02
2016-04-04T02:04:54.760Z,91.02
2016-04-04T02:05:54.731Z,91.02
2016-04-04T02:06:54.671Z,91.02
2016-04-04T02:07:54.628Z,91.5
2016-04-04T02:08:54.583Z,91.78
2016-04-04T02:09:54.523Z,91.12
2016-04-04T02:10:54.479Z,91.6
2016-04-04T02:11:54.435Z,91.78
2016-04-04T02:12:54.406Z,92.07
2016-04-04T02:13:54.347Z,91.31
2016-04-04T02:14:54.287Z,91.41
2016-04-04T02:15:54.243Z,91.98
2016-04-04T02:16:54.198Z,91.41
2016-04-04T02:17:54.123Z,91.31
2016-04-04T02:18:54.078Z,91.12
2016-04-04T02:19:54.050Z,91.02
2016-04-04T02:20:53.975Z,91.12
2016-04-04T02:21:53.962Z,91.02
2016-04-04T02:22:53.887Z,91.02
2016-04-04T02:23:53.842Z,91.41
2016-04-04T02:24:53.783Z,91.98
2016-04-04T02:25:53.738Z,91.74
2016-04-04T02:26:53.679Z,91.98
2016-04-04T02:27:53.635Z,91.21
2016-04-04T02:28:53.606Z,91.31
2016-04-04T02:29:53.546Z,91.78
2016-04-04T02:30:53.486Z,92.26
2016-04-04T02:31:53.443Z,92.03
2016-04-04T02:32:53.382Z,92.03
2016-04-04T02:33:53.573Z,92.32
2016-04-04T02:34:53.294Z,92.41
2016-04-04T02:35:53.249Z,92.69
2016-04-04T02:36:53.190Z,92.32
2016-04-04T02:37:53.146Z,92.12
2016-04-04T02:38:53.086Z,92.41
2016-04-04T02:39:53.042Z,92.12
2016-04-04T02:40:52.998Z,92.41
2016-04-04T02:41:52.953Z,92.41
2016-04-04T02:42:52.893Z,91.74
2016-04-04T02:43:52.865Z,91.88
2016-04-04T02:44:52.806Z,91.21
2016-04-04T02:45:52.745Z,91.46
2016-04-04T02:46:52.686Z,92.41
2016-04-04T02:47:52.642Z,92.5
2016-04-04T02:48:52.597Z,92.12
2016-04-04T02:49:52.678Z,92.03
2016-04-04T02:50:52.508Z,92.32
2016-04-04T02:51:52.449Z,92.41
2016-04-04T02:52:52.389Z,92.88
2016-04-04T02:53:52.344Z,93.36
2016-04-04T02:54:52.316Z,93.08
2016-04-04T02:55:52.241Z,93.08
2016-04-04T02:56:52.196Z,92.22
2016-04-04T02:57:52.153Z,92.41
2016-04-04T02:58:52.093Z,92.5
2016-04-04T02:59:52.049Z,92.32
2016-04-04T03:00:52.004Z,91.74
2016-04-04T03:01:51.945Z,91.74
2016-04-04T03:02:51.901Z,92.41
2016-04-04T03:03:51.840Z,92.32
2016-04-04T03:04:51.797Z,92.12
2016-04-04T03:05:51.768Z,91.74
2016-04-04T03:06:51.693Z,92.32
2016-04-04T03:07:51.657Z,91.83
2016-04-04T03:08:51.597Z,92.32
2016-04-04T03:09:51.553Z,92.32
2016-04-04T03:10:51.493Z,92.6
2016-04-04T03:11:51.449Z,92.5
2016-04-04T03:12:51.390Z,92.22
2016-04-04T03:13:51.360Z,91.83
2016-04-04T03:14:51.301Z,92.22
2016-04-04T03:15:51.273Z,92.5
2016-04-04T03:16:51.196Z,92.32
2016-04-04T03:17:51.168Z,92.88
2016-04-04T03:18:51.093Z,93.17
2016-04-04T03:19:51.096Z,93.08
2016-04-04T03:20:51.004Z,93.17
2016-04-04T03:21:50.945Z,93.08
2016-04-04T03:22:50.901Z,92.69
2016-04-04T03:23:50.856Z,92.6
2016-04-04T03:24:50.797Z,92.5
2016-04-04T03:25:50.753Z,92.41
2016-04-04T03:26:50.692Z,91.93
2016-04-04T03:27:50.648Z,92.32
2016-04-04T03:28:50.604Z,92.69
2016-04-04T03:29:50.544Z,93.08
2016-04-04T03:30:50.500Z,93.74
2016-04-04T03:31:50.456Z,93.41
2016-04-04T03:32:50.411Z,92.79
2016-04-04T03:33:50.352Z,92.12
2016-04-04T03:34:50.324Z,92.79
2016-04-04T03:35:50.248Z,92.5
2016-04-04T03:36:50.204Z,92.22
2016-04-04T03:37:50.144Z,92.6
2016-04-04T03:38:50.100Z,92.69
2016-04-04T03:39:50.056Z,93.36
2016-04-04T03:40:49.996Z,93.36
2016-04-04T03:41:49.951Z,92.88
2016-04-04T03:42:49.892Z,93.36
2016-04-04T03:43:49.848Z,92.98
2016-04-04T03:44:49.803Z,92.6
2016-04-04T03:45:49.744Z,92.12
2016-04-04T03:46:49.716Z,92.6
2016-04-04T03:47:49.655Z,92.6
2016-04-04T03:48:49.611Z,92.6
2016-04-04T03:49:49.552Z,92.41
2016-04-04T03:50:49.507Z,91.55
2016-04-04T03:51:49.447Z,91.07
2016-04-04T03:52:49.403Z,91.46
2016-04-04T03:53:49.359Z,90.69
2016-04-04T03:54:49.315Z,90.03
2016-04-04T03:55:49.270Z,89.64
2016-04-04T03:56:49.195Z,89.69
2016-04-04T03:57:49.167Z,89.5
2016-04-04T03:58:49.123Z,89.64
2016-04-04T03:59:49.062Z,89.83
2016-04-04T04:00:49.003Z,89.54
2016-04-04T04:01:48.959Z,89.07
2016-04-04T04:02:48.899Z,89.45
2016-04-04T04:03:48.886Z,88.78
2016-04-04T04:04:48.811Z,88.92
2016-04-04T04:05:48.750Z,88.16
2016-04-04T04:06:48.707Z,87.97
2016-04-04T04:07:48.679Z,88.16
2016-04-04T04:08:48.603Z,87.4
2016-04-04T04:09:48.559Z,86.92
2016-04-04T04:10:48.515Z,86.92
2016-04-04T04:11:48.455Z,87.4
2016-04-04T04:12:48.411Z,86.92
2016-04-04T04:13:48.351Z,87.21
2016-04-04T04:14:48.308Z,87.64
2016-04-04T04:15:48.263Z,87.45
2016-04-04T04:16:48.219Z,87.45
2016-04-04T04:17:48.159Z,87.26
2016-04-04T04:18:48.114Z,87.26
2016-04-04T04:19:48.055Z,87.26
2016-04-04T04:20:48.010Z,86.16
2016-04-04T04:21:47.952Z,86.25
2016-04-04T04:22:47.922Z,86.59
2016-04-04T04:23:47.862Z,87.45
2016-04-04T04:24:47.835Z,88.31
2016-04-04T04:25:47.758Z,89.36
2016-04-04T04:26:47.715Z,89.54
2016-04-04T04:27:47.670Z,89.93
2016-04-04T04:28:47.611Z,89.54
2016-04-04T04:29:47.582Z,89.26
2016-04-04T04:30:47.521Z,89.64
2016-04-04T04:31:47.478Z,89.36
2016-04-04T04:32:47.417Z,89.07
2016-04-04T04:33:47.359Z,88.98
2016-04-04T04:34:47.314Z,88.78
2016-04-04T04:35:47.254Z,88.98
2016-04-04T04:36:47.226Z,88.88
2016-04-04T04:37:47.197Z,89.83
2016-04-04T04:38:47.122Z,90.12
2016-04-04T04:39:47.061Z,90.12
2016-04-04T04:40:47.018Z,89.17
2016-04-04T04:41:46.973Z,89.54
2016-04-04T04:42:46.914Z,89.83
2016-04-04T04:43:46.885Z,89.45
2016-04-04T04:44:46.809Z,88.98
2016-04-04T04:45:46.766Z,88.78
2016-04-04T04:46:46.721Z,88.02
2016-04-04T04:47:46.677Z,89.54
2016-04-04T04:48:46.633Z,90.03
2016-04-04T04:49:46.605Z,90.12
2016-04-04T04:50:46.513Z,89.45
2016-04-04T04:51:46.469Z,89.54
2016-04-04T04:52:46.425Z,89.36
2016-04-04T04:53:46.365Z,88.78
2016-04-04T04:54:46.321Z,88.88
2016-04-04T04:55:46.276Z,88.69
2016-04-04T04:56:46.232Z,88.98
2016-04-04T04:57:46.188Z,88.4
2016-04-04T04:58:46.113Z,88.4
2016-04-04T04:59:46.053Z,88.5
2016-04-04T05:00:46.024Z,88.12
2016-04-04T05:01:45.965Z,87.45
2016-04-04T05:02:45.920Z,86.78
2016-04-04T05:03:45.861Z,86.98
2016-04-04T05:04:46.035Z,86.69
2016-04-04T05:05:45.757Z,87.93
2016-04-04T05:06:45.728Z,87.74
2016-04-04T05:07:45.668Z,87.54
2016-04-04T05:08:45.609Z,86.69
2016-04-04T05:09:45.564Z,86.69
2016-04-04T05:10:45.520Z,86.49
2016-04-04T05:11:45.491Z,87.16
2016-04-04T05:12:45.417Z,86.69
2016-04-04T05:13:45.372Z,86.88
2016-04-04T05:14:45.327Z,87.21
2016-04-04T05:15:45.268Z,87.49
2016-04-04T05:16:45.225Z,87.16
2016-04-04T05:17:45.180Z,87.35
2016-04-04T05:18:45.119Z,87.54
2016-04-04T05:19:45.217Z,87.45
2016-04-04T05:20:45.016Z,86.98
2016-04-04T05:21:44.971Z,87.64
2016-04-04T05:22:44.911Z,87.54
2016-04-04T05:23:44.883Z,86.98
2016-04-04T05:24:44.824Z,87.35
2016-04-04T05:25:44.623Z,87.93
2016-04-04T05:26:44.740Z,88.4
2016-04-04T05:27:46.717Z,88.88
2016-04-04T05:28:44.646Z,88.5
2016-04-04T05:29:44.587Z,88.31
2016-04-04T05:30:44.527Z,88.21
2016-04-04T05:31:44.483Z,87.93
2016-04-04T05:32:44.423Z,87.93
2016-04-04T05:33:44.379Z,88.31
2016-04-04T05:34:44.506Z,88.69
2016-04-04T05:35:44.275Z,89.4
2016-04-04T05:36:44.231Z,89.54
2016-04-04T05:37:44.187Z,88.92
2016-04-04T05:38:44.143Z,88.83
2016-04-04T05:39:44.082Z,88.92
2016-04-04T05:40:44.023Z,88.26
2016-04-04T05:41:43.978Z,87.4
2016-04-04T05:42:43.934Z,88.16
2016-04-04T05:43:43.875Z,88.07
2016-04-04T05:44:43.845Z,87.97
2016-04-04T05:45:43.787Z,88.73
2016-04-04T05:46:43.742Z,89.21
2016-04-04T05:47:43.683Z,89.4
2016-04-04T05:48:43.623Z,88.45
2016-04-04T05:49:43.609Z,87.97
2016-04-04T05:50:43.534Z,88.26
2016-04-04T05:51:43.489Z,87.87
2016-04-04T05:52:43.430Z,88.26
2016-04-04T05:53:43.385Z,87.4
2016-04-04T05:54:43.342Z,87.3
2016-04-04T05:55:43.282Z,86.92
2016-04-04T05:56:43.252Z,87.02
2016-04-04T05:57:43.194Z,87.21
2016-04-04T05:58:43.134Z,86.82
2016-04-04T05:59:43.074Z,87.49
2016-04-04T06:00:43.060Z,86.63
2016-04-04T06:01:43.001Z,87.21
2016-04-04T06:02:42.926Z,86.82
2016-04-04T06:03:42.725Z,87.21
2016-04-04T06:04:42.993Z,87.11
2016-04-04T06:05:42.777Z,87.4
2016-04-04T06:06:42.749Z,87.21
2016-04-04T06:07:42.736Z,86.54
2016-04-04T06:08:42.645Z,86.35
2016-04-04T06:09:42.585Z,87.49
2016-04-04T06:10:42.540Z,88.26
2016-04-04T06:11:42.497Z,87.82
2016-04-04T06:12:42.437Z,88.16
2016-04-04T06:13:42.408Z,87.73
2016-04-04T06:14:42.348Z,87.06
2016-04-04T06:15:42.289Z,85.63
2016-04-04T06:16:42.260Z,86.1
2016-04-04T06:17:42.184Z,85.72
2016-04-04T06:18:42.141Z,85.15
2016-04-04T06:19:42.144Z,84.2
2016-04-04T06:20:42.036Z,83.91
2016-04-04T06:21:42.008Z,84.86
2016-04-04T06:22:41.948Z,84.96
2016-04-04T06:23:41.904Z,84.67
2016-04-04T06:24:41.844Z,84.1
2016-04-04T06:25:41.799Z,84
2016-04-04T06:26:41.755Z,84.52
2016-04-04T06:27:41.696Z,85
2016-04-04T06:28:41.651Z,84.33
2016-04-04T06:29:41.608Z,82.81
2016-04-04T06:30:41.548Z,81.66
2016-04-04T06:31:41.504Z,80.22
2016-04-04T06:32:41.443Z,80.41
2016-04-04T06:33:41.416Z,80.61
2016-04-04T06:34:41.434Z,81.18
2016-04-04T06:35:41.311Z,80.41
2016-04-04T06:36:41.283Z,80.51
2016-04-04T06:37:41.223Z,80.7
2016-04-04T06:38:41.179Z,81.22
2016-04-04T06:39:41.118Z,81.22
2016-04-04T06:40:41.075Z,80.74
2016-04-04T06:41:41.015Z,79.88
2016-04-04T06:42:40.970Z,79.79
2016-04-04T06:43:40.926Z,79.02
2016-04-04T06:44:40.867Z,79.69
2016-04-04T06:45:40.823Z,80.27
2016-04-04T06:46:40.778Z,81.51
2016-04-04T06:47:40.719Z,82.37
2016-04-04T06:48:40.690Z,82.65
2016-04-04T06:49:40.692Z,82.84
2016-04-04T06:50:40.586Z,82.84
2016-04-04T06:51:40.525Z,82.46
2016-04-04T06:52:40.482Z,81.6
2016-04-04T06:53:40.438Z,81.99
2016-04-04T06:54:40.409Z,82.28
2016-04-04T06:55:40.349Z,82.84
2016-04-04T06:56:39.539Z,82.28
2016-04-04T06:57:40.246Z,81.22
2016-04-04T06:58:40.185Z,80.3
2016-04-04T06:59:40.157Z,79.93
2016-04-04T07:00:40.087Z,79.25
2016-04-04T07:01:40.043Z,79.25
2016-04-04T07:02:39.998Z,79.83
2016-04-04T07:03:39.954Z,80.59
2016-04-04T07:04:39.925Z,80.35
2016-04-04T07:05:39.851Z,80.82
2016-04-04T07:06:39.821Z,81.3
2016-04-04T07:07:39.762Z,81.3
2016-04-04T07:08:39.701Z,81.21
2016-04-04T07:09:39.673Z,81.78
2016-04-04T07:10:39.628Z,81.3
2016-04-04T07:11:39.569Z,80.73
2016-04-04T07:12:39.525Z,81.02
2016-04-04T07:13:39.480Z,81.21
2016-04-04T07:14:39.421Z,82.35
2016-04-04T07:15:39.377Z,82.64
2016-04-04T07:16:39.332Z,82.45
2016-04-04T07:17:39.272Z,81.11
2016-04-04T07:18:39.228Z,80.73
2016-04-04T07:19:39.184Z,80.54
2016-04-04T07:20:39.124Z,80.92
2016-04-04T07:21:39.097Z,80.44
2016-04-04T07:22:39.052Z,79.81
2016-04-04T07:23:38.992Z,80.87
2016-04-04T07:24:38.947Z,80.29
2016-04-04T07:25:38.888Z,79.24
2016-04-04T07:26:38.844Z,78.19
2016-04-04T07:27:38.816Z,77.7
2016-04-04T07:28:38.755Z,76.21
2016-04-04T07:29:38.710Z,75.51
2016-04-04T07:30:38.668Z,74.84
2016-04-04T07:31:38.608Z,74.77
2016-04-04T07:32:38.563Z,74.58
2016-04-04T07:33:38.503Z,74.4
2016-04-04T07:34:38.475Z,74.58
2016-04-04T07:35:38.430Z,75.07
2016-04-04T07:36:38.371Z,74.77
2016-04-04T07:37:38.342Z,73.63
2016-04-04T07:38:38.298Z,73.15
2016-04-04T07:39:38.238Z,72.96
2016-04-04T07:40:38.179Z,71.52
2016-04-04T07:41:38.150Z,71.62
2016-04-04T07:42:38.089Z,71.71
2016-04-04T07:43:38.046Z,70.18
2016-04-04T07:44:38.002Z,69.89
2016-04-04T07:45:37.958Z,69.26
2016-04-04T07:46:37.897Z,68.97
2016-04-04T07:47:37.869Z,67.63
2016-04-04T07:48:37.809Z,66.86
2016-04-04T07:49:37.781Z,67.44
2016-04-04T07:50:37.721Z,67.72
2016-04-04T07:51:37.661Z,66.29
2016-04-04T07:52:37.616Z,65.52
2016-04-04T07:53:37.573Z,65.23
2016-04-04T07:54:37.528Z,65.14
2016-04-04T07:55:37.484Z,64.85
2016-04-04T07:56:37.441Z,65.81
2016-04-04T07:57:37.396Z,67.05
2016-04-04T07:58:37.336Z,65.91
2016-04-04T07:59:37.291Z,67.54
2016-04-04T08:00:37.248Z,67.54
2016-04-04T08:01:37.187Z,68.49
2016-04-04T08:02:37.144Z,68.59
2016-04-04T08:03:37.099Z,68.49
2016-04-04T08:04:37.055Z,67.34
2016-04-04T08:05:37.012Z,68.4
2016-04-04T08:06:36.968Z,68.01
2016-04-04T08:07:36.907Z,66.09
2016-04-04T08:08:36.862Z,64.95
2016-04-04T08:09:36.818Z,65.23
2016-04-04T08:10:36.775Z,65.23
2016-04-04T08:11:36.731Z,65.91
2016-04-04T08:12:36.670Z,65.91
2016-04-04T08:13:36.626Z,66.42
2016-04-04T08:14:36.581Z,65.36
2016-04-04T08:15:36.553Z,64.69
2016-04-04T08:16:36.478Z,64.79
2016-04-04T08:17:36.434Z,65.17
2016-04-04T08:18:36.390Z,65.36
2016-04-04T08:19:36.345Z,64.98
2016-04-04T08:20:36.302Z,65.26
2016-04-04T08:21:36.242Z,63.92
2016-04-04T08:22:36.197Z,63.92
2016-04-04T08:23:36.153Z,64.59
2016-04-04T08:24:36.109Z,64.89
2016-04-04T08:25:36.066Z,65.26
2016-04-04T08:26:36.021Z,65.08
2016-04-04T08:27:35.977Z,64.89
2016-04-04T08:28:35.932Z,64.98
2016-04-04T08:29:35.873Z,65.3
2016-04-04T08:30:35.829Z,65.3
2016-04-04T08:31:35.769Z,65.78
2016-04-04T08:32:35.740Z,65.01
2016-04-04T08:33:35.670Z,64.82
2016-04-04T08:34:35.630Z,64.82
2016-04-04T08:35:35.559Z,64.37
2016-04-04T08:36:35.503Z,63.51
2016-04-04T08:37:35.430Z,63.42
2016-04-04T08:38:35.381Z,63.22
2016-04-04T08:39:35.332Z,64.09
2016-04-04T08:40:35.284Z,63.79
2016-04-04T08:41:35.236Z,64.12
2016-04-04T08:42:35.171Z,64.12
2016-04-04T08:43:35.141Z,63.35
2016-04-04T08:44:35.079Z,63.06
2016-04-04T08:45:35.035Z,62.68
2016-04-04T08:46:35.004Z,62.39
2016-04-04T08:47:34.942Z,62.29
2016-04-04T08:48:34.898Z,62.99
2016-04-04T08:49:34.852Z,64.05
2016-04-04T08:50:34.807Z,64.15
2016-04-04T08:51:34.778Z,64.43
2016-04-04T08:52:34.717Z,64.66
2016-04-04T08:53:34.657Z,65.01
2016-04-04T08:54:34.613Z,64.85
2016-04-04T08:55:34.553Z,64.85
2016-04-04T08:56:34.539Z,64.66
2016-04-04T08:57:34.478Z,64.6
2016-04-04T08:58:34.419Z,64.5
2016-04-04T08:59:34.391Z,64.22
2016-04-04T09:00:34.347Z,63.83
2016-04-04T09:01:34.286Z,63.48
2016-04-04T09:02:34.273Z,62.32
2016-04-04T09:03:34.214Z,62.32
2016-04-04T09:04:34.154Z,62.32
2016-04-04T09:05:34.110Z,61.58
2016-04-04T09:06:34.065Z,61.49
2016-04-04T09:07:34.005Z,61.1
2016-04-04T09:08:33.962Z,60.42
2016-04-04T09:09:33.918Z,59.59
2016-04-04T09:10:33.873Z,59.4
2016-04-04T09:11:33.829Z,59.4
2016-04-04T09:12:33.784Z,59.3
2016-04-04T09:13:33.740Z,59.72
2016-04-04T09:14:33.696Z,59.52
2016-04-04T09:15:33.637Z,58.95
2016-04-04T09:16:33.608Z,59.43
2016-04-04T09:17:33.564Z,58.2
2016-04-04T09:18:33.504Z,59.07
2016-04-04T09:19:33.475Z,59.36
2016-04-04T09:20:33.415Z,58.88
2016-04-04T09:21:33.387Z,58.59
2016-04-04T09:22:33.327Z,57.56
2016-04-04T09:23:33.283Z,57.56
2016-04-04T09:24:33.255Z,56.98
2016-04-04T09:25:33.195Z,56.72
2016-04-04T09:26:33.166Z,57.2
2016-04-04T09:27:33.122Z,56.81
2016-04-04T09:28:33.062Z,56.81
2016-04-04T09:29:33.018Z,56.52
2016-04-04T09:30:32.974Z,56.24
2016-04-04T09:31:32.945Z,55.85
2016-04-04T09:32:32.901Z,55.56
2016-04-04T09:33:32.841Z,54.88
2016-04-04T09:34:32.813Z,54.53
2016-04-04T09:35:32.768Z,54.43
2016-04-04T09:36:32.708Z,54.53
2016-04-04T09:37:32.680Z,54.05
2016-04-04T09:38:32.636Z,53.59
2016-04-04T09:39:32.576Z,53.69
2016-04-04T09:40:32.532Z,53.39
2016-04-04T09:41:32.487Z,52.91
2016-04-04T09:42:32.443Z,52.72
2016-04-04T09:43:32.399Z,52.91
2016-04-04T09:44:32.355Z,52.81
2016-04-04T09:45:32.327Z,52.53
2016-04-04T09:46:32.282Z,51.56
2016-04-04T09:47:32.222Z,49.55
2016-04-04T09:48:32.179Z,48.49
2016-04-04T09:49:32.135Z,49.29
2016-04-04T09:50:32.106Z,49.58
2016-04-04T09:51:32.061Z,50.84
2016-04-04T09:52:32.017Z,51.35
2016-04-04T09:53:31.957Z,51.71
2016-04-04T09:54:31.928Z,51.9
2016-04-04T09:55:31.885Z,50.55
2016-04-04T09:56:31.856Z,50.38
2016-04-04T09:57:31.797Z,50.93
2016-04-04T09:58:31.767Z,50.45
2016-04-04T09:59:31.708Z,51.13
2016-04-04T10:00:31.664Z,50.93
2016-04-04T10:01:31.620Z,51.51
2016-04-04T10:02:31.576Z,52.19
2016-04-04T10:03:31.531Z,52.58
2016-04-04T10:04:31.502Z,52.26
2016-04-04T10:05:31.443Z,52.09
2016-04-04T10:06:31.399Z,52.48
2016-04-04T10:07:31.371Z,52.97
2016-04-04T10:08:31.310Z,52.48
2016-04-04T10:09:31.271Z,52.77
2016-04-04T10:10:31.226Z,52.58
2016-04-04T10:11:31.183Z,52.48
2016-04-04T10:12:31.154Z,52.29
2016-04-04T10:13:31.095Z,51.83
2016-04-04T10:14:31.034Z,51.73
2016-04-04T10:15:31.006Z,50.7
2016-04-04T10:16:30.962Z,51.66
2016-04-04T10:17:30.949Z,52.02
2016-04-04T10:18:30.873Z,52.51
2016-04-04T10:19:30.845Z,52.24
2016-04-04T10:20:30.800Z,52.53
2016-04-04T10:21:30.741Z,52.34
2016-04-04T10:22:30.697Z,52.44
2016-04-04T10:23:30.668Z,52.27
2016-04-04T10:24:30.608Z,52.17
2016-04-04T10:25:30.564Z,51.78
2016-04-04T10:26:30.536Z,51.2
2016-04-04T10:27:30.492Z,51.5
2016-04-04T10:28:30.447Z,51.4
2016-04-04T10:29:30.419Z,51.78
2016-04-04T10:30:30.358Z,52.08
2016-04-04T10:31:30.330Z,51.2
2016-04-04T10:32:30.285Z,49.75
2016-04-04T10:33:30.227Z,49.56
2016-04-04T10:34:30.183Z,49.95
2016-04-04T10:35:30.154Z,50.65
2016-04-04T10:36:30.093Z,50.24
2016-04-04T10:37:30.065Z,49.68
2016-04-04T10:38:30.020Z,48.52
2016-04-04T10:39:29.992Z,48.06
2016-04-04T10:40:29.933Z,48.37
2016-04-04T10:41:29.888Z,48.42
2016-04-04T10:42:29.844Z,48.35
2016-04-04T10:43:29.800Z,47.89
2016-04-04T10:44:29.771Z,46.62
2016-04-04T10:45:29.727Z,47.3
2016-04-04T10:46:29.699Z,47.98
2016-04-04T10:47:29.623Z,48.44
2016-04-04T10:48:29.610Z,48.37
2016-04-04T10:49:29.550Z,49.15
2016-04-04T10:50:29.522Z,48.9
2016-04-04T10:51:29.462Z,49.49
2016-04-04T10:52:29.418Z,48.81
2016-04-04T10:53:29.373Z,49.1
2016-04-04T10:54:29.330Z,49.19
2016-04-04T10:55:29.285Z,49.58
2016-04-04T10:56:29.256Z,50.52
2016-04-04T10:57:29.197Z,50.24
2016-04-04T10:58:29.169Z,50.14
2016-04-04T10:59:29.124Z,50.07
2016-04-04T11:00:29.080Z,49.58
2016-04-04T11:01:29.036Z,49.68
2016-04-04T11:02:28.992Z,49.65
2016-04-04T11:03:28.932Z,49.29
2016-04-04T11:04:28.903Z,49.49
2016-04-04T11:05:28.859Z,49.97
2016-04-04T11:06:28.816Z,50.65
2016-04-04T11:07:28.771Z,50.82
2016-04-04T11:08:28.721Z,50.52
2016-04-04T11:09:28.692Z,51.13
2016-04-04T11:10:28.742Z,50.94
2016-04-04T11:11:28.603Z,50.92
2016-04-04T11:12:28.559Z,50.82
2016-04-04T11:13:28.531Z,50.24
2016-04-04T11:14:28.471Z,49.29
2016-04-04T11:15:28.442Z,49.19
2016-04-04T11:16:28.398Z,48.42
2016-04-04T11:17:28.354Z,48.13
2016-04-04T11:18:28.311Z,47.91
2016-04-04T11:19:28.266Z,49
2016-04-04T11:20:28.222Z,48.69
2016-04-04T11:21:28.178Z,48.42
2016-04-04T11:22:28.134Z,49.56
2016-04-04T11:23:28.089Z,49.17
2016-04-04T11:24:28.045Z,49.46
2016-04-04T11:25:28.001Z,49.1
2016-04-04T11:26:27.957Z,48.9
2016-04-04T11:27:27.928Z,49.19
2016-04-04T11:28:27.900Z,48.32
2016-04-04T11:29:27.840Z,48.52
2016-04-04T11:30:27.796Z,47.55
2016-04-04T11:31:27.751Z,48.03
2016-04-04T11:32:27.707Z,47.26
2016-04-04T11:33:27.662Z,46.29
2016-04-04T11:34:27.649Z,47.52
2016-04-04T11:35:27.606Z,47.84
2016-04-04T11:36:27.561Z,48.42
2016-04-04T11:37:27.532Z,48.52
2016-04-04T11:38:27.463Z,48.71
2016-04-04T11:39:26.700Z,48.61
2016-04-04T11:40:27.374Z,48.49
2016-04-04T11:41:27.330Z,48.52
2016-04-04T11:42:27.286Z,48.71
2016-04-04T11:43:27.257Z,48.52
2016-04-04T11:44:27.228Z,48.15
2016-04-04T11:45:27.169Z,48.03
2016-04-04T11:46:27.124Z,47.55
2016-04-04T11:47:27.096Z,47.28
2016-04-04T11:48:27.052Z,47.28
2016-04-04T11:49:26.991Z,47.57
2016-04-04T11:50:26.947Z,46.51
2016-04-04T11:51:26.935Z,46.99
2016-04-04T11:52:26.891Z,47.38
2016-04-04T11:53:26.846Z,48.01
2016-04-04T11:54:26.787Z,48.03
2016-04-04T11:55:26.852Z,46.39
2016-04-04T11:56:26.699Z,46.22
2016-04-04T11:57:26.670Z,46.41
2016-04-04T11:58:27.235Z,46.04
2016-04-04T11:59:26.597Z,45.85
2016-04-04T12:00:26.537Z,46.22
2016-04-04T12:01:26.493Z,47.45
2016-04-04T12:02:26.465Z,46.58
2016-04-04T12:03:26.435Z,46.31
2016-04-04T12:04:26.392Z,46.7
2016-04-04T12:05:26.347Z,46.58
2016-04-04T12:06:26.303Z,47.45
2016-04-04T12:07:26.259Z,46.7
2016-04-04T12:08:26.230Z,47.26
2016-04-04T12:09:26.187Z,47.86
2016-04-04T12:10:26.111Z,47.94
2016-04-04T12:11:26.082Z,47.84
2016-04-04T12:12:26.039Z,47.55
2016-04-04T12:13:25.995Z,47.45
2016-04-04T12:14:25.965Z,47.74
2016-04-04T12:15:25.937Z,47.74
2016-04-04T12:16:25.877Z,48.03
2016-04-04T12:17:25.833Z,47.14
2016-04-04T12:18:25.773Z,47.94
2016-04-04T12:19:25.728Z,47.36
2016-04-04T12:20:25.701Z,46.26
2016-04-04T12:21:25.672Z,46.94
2016-04-04T12:22:25.612Z,46.67
2016-04-04T12:23:25.569Z,47.84
2016-04-04T12:24:25.539Z,47.81
2016-04-04T12:25:25.511Z,48.22
2016-04-04T12:26:25.436Z,47.94
2016-04-04T12:27:25.391Z,47.52
2016-04-04T12:28:25.347Z,48.01
2016-04-04T12:29:25.318Z,48.01
2016-04-04T12:30:25.274Z,47.64
2016-04-04T12:31:25.230Z,47.91
2016-04-04T12:32:25.201Z,48.76
2016-04-04T12:33:25.157Z,47.33
2016-04-04T12:34:25.112Z,48.01
2016-04-04T12:35:25.053Z,48.39
2016-04-04T12:36:25.024Z,49.1
2016-04-04T12:37:24.981Z,47.84
2016-04-04T12:38:24.936Z,47.94
2016-04-04T12:39:24.893Z,48.03
2016-04-04T12:40:24.879Z,48.13
2016-04-04T12:41:24.804Z,47.94
2016-04-04T12:42:24.776Z,47.91
2016-04-04T12:43:24.747Z,48.39
2016-04-04T12:44:24.703Z,49.27
2016-04-04T12:45:24.658Z,48.13
2016-04-04T12:46:24.598Z,48.49
2016-04-04T12:47:24.570Z,49.15
2016-04-04T12:48:24.510Z,49.6
2016-04-04T12:49:24.466Z,49.56
2016-04-04T12:50:24.422Z,48.88
2016-04-04T12:51:24.393Z,49.54
2016-04-04T12:52:24.349Z,49.34
2016-04-04T12:53:24.304Z,48.39
2016-04-04T12:54:24.260Z,49.07